createdAt,value
2018-02-19T00:00:23.163Z,2.89
2018-02-19T00:02:51.510Z,2.86
2018-02-19T00:05:19.858Z,2.86
2018-02-19T00:07:48.258Z,2.77
2018-02-19T00:10:16.601Z,2.74
2018-02-19T00:12:44.926Z,2.74
2018-02-19T00:15:13.270Z,2.71
2018-02-19T00:17:41.674Z,2.68
2018-02-19T00:20:10.050Z,2.62
2018-02-19T00:22:38.417Z,2.47
2018-02-19T00:25:06.794Z,2.52
2018-02-19T00:27:35.113Z,2.39
2018-02-19T00:30:03.458Z,2.37
2018-02-19T00:32:31.787Z,2.37
2018-02-19T00:35:00.206Z,2.32
2018-02-19T00:37:28.582Z,2.12
2018-02-19T00:39:56.910Z,1.98
2018-02-19T00:42:25.338Z,2.05
2018-02-19T00:44:53.662Z,1.92
2018-02-19T00:47:22.006Z,1.98
2018-02-19T00:49:50.325Z,2.09
2018-02-19T00:52:18.673Z,2.18
2018-02-19T00:54:46.998Z,2.26
2018-02-19T00:57:15.347Z,2.29
2018-02-19T00:59:43.774Z,2.32
2018-02-19T01:02:12.154Z,2.30
2018-02-19T01:04:40.482Z,2.31
2018-02-19T01:07:08.826Z,2.30
2018-02-19T01:09:37.154Z,2.22
2018-02-19T01:12:05.522Z,2.18
2018-02-19T01:14:33.849Z,2.22
2018-02-19T01:17:02.214Z,2.22
2018-02-19T01:19:30.582Z,2.24
2018-02-19T01:21:58.930Z,2.26
2018-02-19T01:24:27.332Z,2.26
2018-02-19T01:26:55.712Z,2.29
2018-02-19T01:29:24.037Z,2.28
2018-02-19T01:31:52.469Z,2.18
2018-02-19T01:34:20.788Z,2.21
2018-02-19T01:36:49.134Z,2.26
2018-02-19T01:39:17.458Z,2.20
2018-02-19T01:41:45.810Z,2.09
2018-02-19T01:44:14.149Z,2.01
2018-02-19T01:46:42.497Z,2.07
2018-02-19T01:49:10.906Z,2.13
2018-02-19T01:51:39.246Z,2.14
2018-02-19T01:54:07.574Z,2.12
2018-02-19T01:56:35.913Z,2.09
2018-02-19T01:59:04.242Z,2.16
2018-02-19T02:01:32.584Z,2.14
2018-02-19T02:04:00.962Z,2.13
2018-02-19T02:06:29.310Z,2.18
2018-02-19T02:08:57.637Z,2.17
2018-02-19T02:11:25.981Z,2.06
2018-02-19T02:13:54.301Z,1.85
2018-02-19T02:16:22.754Z,1.87
2018-02-19T02:18:51.124Z,1.80
2018-02-19T02:21:19.470Z,1.88
2018-02-19T02:23:47.793Z,1.77
2018-02-19T02:26:16.154Z,1.74
2018-02-19T02:28:44.478Z,1.73
2018-02-19T02:31:12.832Z,1.70
2018-02-19T02:33:41.187Z,1.70
2018-02-19T02:36:09.530Z,1.71
2018-02-19T02:38:37.939Z,1.71
2018-02-19T02:41:06.259Z,1.72
2018-02-19T02:43:34.598Z,1.73
2018-02-19T02:46:02.970Z,1.78
2018-02-19T02:48:31.350Z,1.80
2018-02-19T02:50:59.675Z,1.73
2018-02-19T02:53:28.025Z,1.68
2018-02-19T02:55:56.347Z,1.66
2018-02-19T02:58:24.754Z,1.72
2018-02-19T03:00:53.083Z,1.73
2018-02-19T03:03:21.433Z,1.77
2018-02-19T03:05:50.070Z,1.75
2018-02-19T03:08:18.470Z,1.67
2018-02-19T03:10:46.805Z,1.62
2018-02-19T03:13:15.151Z,1.58
2018-02-19T03:15:43.499Z,1.61
2018-02-19T03:18:11.842Z,1.62
2018-02-19T03:20:40.255Z,1.65
2018-02-19T03:23:08.634Z,1.63
2018-02-19T03:25:37.005Z,1.61
2018-02-19T03:28:05.349Z,1.71
2018-02-19T03:30:33.762Z,1.70
2018-02-19T03:33:02.194Z,1.70
2018-02-19T03:35:30.536Z,1.67
2018-02-19T03:37:58.846Z,1.73
2018-02-19T03:40:27.269Z,1.77
2018-02-19T03:42:55.613Z,1.80
2018-02-19T03:45:24.025Z,1.73
2018-02-19T03:47:52.367Z,1.69
2018-02-19T03:50:20.690Z,1.73
2018-02-19T03:52:49.054Z,1.81
2018-02-19T03:55:17.377Z,1.76
2018-02-19T03:57:45.726Z,1.80
2018-02-19T04:00:14.082Z,1.69
2018-02-19T04:02:42.427Z,1.64
2018-02-19T04:05:10.761Z,1.72
2018-02-19T04:07:39.113Z,1.74
2018-02-19T04:10:07.438Z,1.85
2018-02-19T04:12:35.869Z,1.86
2018-02-19T04:15:04.250Z,1.85
2018-02-19T04:17:32.643Z,1.85
2018-02-19T04:20:00.998Z,1.93
2018-02-19T04:22:29.342Z,1.95
2018-02-19T04:24:57.666Z,1.95
2018-02-19T04:27:26.009Z,1.94
2018-02-19T04:29:54.405Z,1.96
2018-02-19T04:32:22.755Z,1.93
2018-02-19T04:34:51.082Z,1.92
2018-02-19T04:37:19.538Z,1.94
2018-02-19T04:39:47.887Z,1.91
2018-02-19T04:42:16.316Z,1.95
2018-02-19T04:44:50.178Z,1.94
2018-02-19T04:47:18.578Z,1.95
2018-02-19T04:49:46.906Z,1.94
2018-02-19T04:52:15.231Z,1.90
2018-02-19T04:54:43.577Z,1.90
2018-02-19T04:57:11.898Z,1.96
2018-02-19T04:59:40.242Z,1.97
2018-02-19T05:02:08.566Z,1.99
2018-02-19T05:04:37.013Z,2.17
2018-02-19T05:07:05.334Z,2.25
2018-02-19T05:09:33.677Z,2.57
2018-02-19T05:12:01.998Z,2.62
2018-02-19T05:14:30.349Z,2.49
2018-02-19T05:16:58.670Z,2.33
2018-02-19T05:19:27.019Z,2.23
2018-02-19T05:21:55.344Z,2.17
2018-02-19T05:24:23.693Z,2.12
2018-02-19T05:26:52.009Z,2.20
2018-02-19T05:29:20.359Z,2.22
2018-02-19T05:31:48.681Z,2.27
2018-02-19T05:34:17.030Z,2.15
2018-02-19T05:36:45.362Z,2.20
2018-02-19T05:39:13.711Z,2.15
2018-02-19T05:41:43.901Z,2.08
2018-02-19T05:44:12.262Z,2.07
2018-02-19T05:46:40.846Z,2.15
2018-02-19T05:49:09.460Z,2.18
2018-02-19T05:51:37.794Z,2.07
2018-02-19T05:54:06.148Z,2.05
2018-02-19T05:56:34.481Z,2.09
2018-02-19T05:59:02.830Z,2.11
2018-02-19T06:01:31.158Z,2.03
2018-02-19T06:03:59.519Z,2.02
2018-02-19T06:06:27.852Z,2.10
2018-02-19T06:08:56.202Z,2.04
2018-02-19T06:11:24.585Z,2.03
2018-02-19T06:13:52.914Z,2.21
2018-02-19T06:16:21.329Z,2.18
2018-02-19T06:18:49.685Z,2.18
2018-02-19T06:21:18.018Z,2.13
2018-02-19T06:23:46.379Z,2.16
2018-02-19T06:26:14.698Z,2.15
2018-02-19T06:28:43.046Z,2.21
2018-02-19T06:31:11.375Z,2.13
2018-02-19T06:33:39.727Z,2.21
2018-02-19T06:36:08.050Z,2.24
2018-02-19T06:38:36.402Z,2.14
2018-02-19T06:41:04.778Z,1.96
2018-02-19T06:43:33.124Z,1.94
2018-02-19T06:46:01.456Z,1.90
2018-02-19T06:48:29.797Z,2.02
2018-02-19T06:50:58.130Z,2.04
2018-02-19T06:53:26.537Z,2.06
2018-02-19T06:55:54.862Z,2.09
2018-02-19T06:58:23.185Z,2.12
2018-02-19T07:00:51.534Z,2.12
2018-02-19T07:03:19.867Z,2.11
2018-02-19T07:05:48.222Z,2.13
2018-02-19T07:08:16.546Z,2.05
2018-02-19T07:10:44.895Z,2.09
2018-02-19T07:13:13.222Z,2.07
2018-02-19T07:15:41.575Z,2.00
2018-02-19T07:18:09.898Z,2.03
2018-02-19T07:20:38.252Z,2.08
2018-02-19T07:23:06.573Z,2.12
2018-02-19T07:25:34.922Z,2.19
2018-02-19T07:28:03.251Z,2.16
2018-02-19T07:30:31.594Z,2.20
2018-02-19T07:32:59.917Z,2.19
2018-02-19T07:35:28.262Z,2.16
2018-02-19T07:37:56.586Z,2.27
2018-02-19T07:40:24.935Z,2.28
2018-02-19T07:42:53.267Z,2.24
2018-02-19T07:45:21.618Z,2.27
2018-02-19T07:47:49.941Z,2.28
2018-02-19T07:50:18.321Z,2.27
2018-02-19T07:52:46.617Z,2.31
2018-02-19T07:55:14.975Z,2.42
2018-02-19T07:57:43.312Z,2.48
2018-02-19T08:00:11.703Z,2.55
2018-02-19T08:02:40.027Z,2.60
2018-02-19T08:05:08.378Z,2.62
2018-02-19T08:07:37.178Z,2.66
2018-02-19T08:10:05.533Z,2.72
2018-02-19T08:12:33.941Z,2.72
2018-02-19T08:15:02.342Z,2.85
2018-02-19T08:17:30.692Z,2.82
2018-02-19T08:19:59.062Z,2.91
2018-02-19T08:22:27.495Z,2.96
2018-02-19T08:24:55.912Z,2.95
2018-02-19T08:27:24.225Z,2.84
2018-02-19T08:29:52.574Z,2.96
2018-02-19T08:32:20.906Z,3.02
2018-02-19T08:34:49.254Z,2.99
2018-02-19T08:37:17.586Z,3.03
2018-02-19T08:39:45.939Z,3.06
2018-02-19T08:42:14.270Z,3.14
2018-02-19T08:44:42.622Z,3.13
2018-02-19T08:47:10.954Z,3.33
2018-02-19T08:49:39.306Z,3.35
2018-02-19T08:52:07.639Z,3.43
2018-02-19T08:54:35.966Z,3.47
2018-02-19T08:57:04.318Z,3.43
2018-02-19T08:59:32.663Z,3.46
2018-02-19T09:02:01.001Z,3.39
2018-02-19T09:04:29.334Z,3.48
2018-02-19T09:06:57.681Z,3.51
2018-02-19T09:09:26.006Z,3.51
2018-02-19T09:11:54.358Z,3.44
2018-02-19T09:14:22.685Z,3.41
2018-02-19T09:16:51.037Z,3.42
2018-02-19T09:19:19.374Z,3.43
2018-02-19T09:21:47.718Z,3.43
2018-02-19T09:24:16.050Z,3.38
2018-02-19T09:26:44.407Z,3.40
2018-02-19T09:29:12.745Z,3.47
2018-02-19T09:31:41.099Z,3.49
2018-02-19T09:34:09.422Z,3.39
2018-02-19T09:36:38.161Z,3.42
2018-02-19T09:39:06.490Z,3.37
2018-02-19T09:41:34.846Z,3.32
2018-02-19T09:44:03.179Z,3.42
2018-02-19T09:46:31.522Z,3.43
2018-02-19T09:48:59.858Z,3.36
2018-02-19T09:51:28.218Z,3.45
2018-02-19T09:53:56.546Z,3.44
2018-02-19T09:56:24.979Z,3.43
2018-02-19T09:58:53.306Z,3.65
2018-02-19T10:01:21.663Z,3.76
2018-02-19T10:03:49.991Z,3.81
2018-02-19T10:06:18.342Z,3.91
2018-02-19T10:08:46.674Z,4.02
2018-02-19T10:11:15.026Z,3.99
2018-02-19T10:13:43.354Z,4.15
2018-02-19T10:16:12.706Z,4.19
2018-02-19T10:18:41.038Z,4.16
2018-02-19T10:21:09.385Z,4.05
2018-02-19T10:23:37.711Z,4.11
2018-02-19T10:26:06.063Z,4.19
2018-02-19T10:28:34.386Z,4.17
2018-02-19T10:31:02.738Z,4.25
2018-02-19T10:33:31.070Z,4.25
2018-02-19T10:35:59.526Z,4.27
2018-02-19T10:38:27.860Z,4.39
2018-02-19T10:40:56.202Z,4.34
2018-02-19T10:43:24.542Z,4.33
2018-02-19T10:45:52.886Z,4.38
2018-02-19T10:48:21.219Z,4.37
2018-02-19T10:50:49.574Z,4.47
2018-02-19T10:53:17.898Z,4.53
2018-02-19T10:55:47.159Z,4.45
2018-02-19T10:58:15.488Z,4.51
2018-02-19T11:00:45.544Z,4.44
2018-02-19T11:03:13.902Z,4.49
2018-02-19T11:05:42.234Z,4.55
2018-02-19T11:08:10.646Z,4.61
2018-02-19T11:13:21.299Z,4.94
2018-02-19T11:15:49.585Z,5.14
2018-02-19T11:18:17.934Z,5.16
2018-02-19T11:20:46.267Z,5.29
2018-02-19T11:23:14.618Z,5.28
2018-02-19T11:25:42.946Z,5.14
2018-02-19T11:28:11.394Z,5.01
2018-02-19T11:30:39.723Z,5.07
2018-02-19T11:33:08.069Z,4.94
2018-02-19T11:35:36.398Z,5.04
2018-02-19T11:38:04.747Z,5.18
2018-02-19T11:40:33.079Z,5.17
2018-02-19T11:43:01.427Z,5.09
2018-02-19T11:45:30.338Z,5.14
2018-02-19T11:47:58.694Z,5.09
2018-02-19T11:50:27.019Z,5.14
2018-02-19T11:52:55.421Z,5.15
2018-02-19T11:55:23.698Z,5.07
2018-02-19T11:57:52.046Z,5.51
2018-02-19T12:00:20.379Z,5.50
2018-02-19T12:02:48.729Z,5.30
2018-02-19T12:05:17.154Z,5.04
2018-02-19T12:07:45.502Z,5.05
2018-02-19T12:10:13.830Z,5.20
2018-02-19T12:12:42.184Z,5.29
2018-02-19T12:15:10.510Z,5.33
2018-02-19T12:17:38.867Z,5.37
2018-02-19T12:20:07.294Z,5.65
2018-02-19T12:22:35.642Z,5.53
2018-02-19T12:25:04.886Z,5.27
2018-02-19T12:27:33.238Z,5.34
2018-02-19T12:30:01.574Z,5.17
2018-02-19T12:32:29.934Z,5.22
2018-02-19T12:34:58.262Z,5.11
2018-02-19T12:37:26.656Z,5.18
2018-02-19T12:39:54.983Z,5.15
2018-02-19T12:42:23.325Z,5.30
2018-02-19T12:44:51.663Z,5.25
2018-02-19T12:47:20.011Z,5.19
2018-02-19T12:49:48.346Z,5.24
2018-02-19T12:52:16.699Z,5.18
2018-02-19T12:54:45.027Z,5.18
2018-02-19T12:57:13.383Z,5.11
2018-02-19T12:59:41.706Z,5.20
2018-02-19T13:02:10.052Z,5.25
2018-02-19T13:04:39.334Z,5.37
2018-02-19T13:07:07.699Z,5.37
2018-02-19T13:09:36.030Z,5.23
2018-02-19T13:12:04.390Z,5.29
2018-02-19T13:14:32.726Z,5.59
2018-02-19T13:17:01.078Z,6.15
2018-02-19T13:19:29.459Z,6.20
2018-02-19T13:21:57.886Z,5.80
2018-02-19T13:24:26.318Z,5.77
2018-02-19T13:26:54.650Z,5.73
2018-02-19T13:29:23.070Z,5.96
2018-02-19T13:31:51.458Z,6.17
2018-02-19T13:34:19.811Z,6.16
2018-02-19T13:36:48.134Z,6.26
2018-02-19T13:39:16.487Z,6.04
2018-02-19T13:41:44.851Z,6.02
2018-02-19T13:44:13.697Z,6.16
2018-02-19T13:46:42.022Z,6.13
2018-02-19T13:49:10.394Z,6.27
2018-02-19T13:51:38.770Z,6.27
2018-02-19T13:54:07.147Z,6.07
2018-02-19T13:56:35.569Z,6.09
2018-02-19T13:59:04.006Z,6.04
2018-02-19T14:01:32.330Z,6.06
2018-02-19T14:04:00.766Z,5.95
2018-02-19T14:06:29.134Z,5.96
2018-02-19T14:08:57.522Z,5.87
2018-02-19T14:11:25.856Z,5.97
2018-02-19T14:13:54.206Z,6.07
2018-02-19T14:16:22.634Z,5.98
2018-02-19T14:18:50.982Z,6.17
2018-02-19T14:21:19.758Z,6.06
2018-02-19T14:23:48.182Z,5.96
2018-02-19T14:26:16.505Z,5.95
2018-02-19T14:28:44.854Z,5.95
2018-02-19T14:31:13.221Z,6.05
2018-02-19T14:33:41.602Z,6.08
2018-02-19T14:36:09.974Z,6.13
2018-02-19T14:38:38.325Z,5.99
2018-02-19T14:41:06.653Z,5.99
2018-02-19T14:43:35.006Z,5.93
2018-02-19T14:46:03.338Z,5.92
2018-02-19T14:48:31.685Z,5.92
2018-02-19T14:51:00.138Z,5.81
2018-02-19T14:53:28.529Z,5.79
2018-02-19T14:55:56.858Z,5.74
2018-02-19T14:58:26.032Z,5.56
2018-02-19T15:00:54.347Z,5.29
2018-02-19T15:03:22.692Z,5.29
2018-02-19T15:05:51.905Z,5.38
2018-02-19T15:08:20.242Z,5.49
2018-02-19T15:10:48.566Z,5.52
2018-02-19T15:13:16.919Z,5.49
2018-02-19T15:15:45.242Z,5.45
2018-02-19T15:18:13.574Z,5.53
2018-02-19T15:20:41.918Z,5.43
2018-02-19T15:23:10.246Z,5.43
2018-02-19T15:25:39.084Z,5.38
2018-02-19T15:28:07.405Z,5.47
2018-02-19T15:30:35.940Z,5.87
2018-02-19T15:33:04.282Z,6.25
2018-02-19T15:35:32.630Z,6.30
2018-02-19T15:38:00.958Z,6.28
2018-02-19T15:40:29.419Z,6.27
2018-02-19T15:42:57.789Z,6.12
2018-02-19T15:45:26.734Z,6.10
2018-02-19T15:47:55.989Z,6.14
2018-02-19T15:50:24.359Z,6.14
2018-02-19T15:52:52.739Z,6.13
2018-02-19T15:55:21.094Z,6.13
2018-02-19T15:57:49.427Z,6.10
2018-02-19T16:00:17.784Z,6.07
2018-02-19T16:02:46.110Z,6.07
2018-02-19T16:05:14.514Z,6.07
2018-02-19T16:07:42.851Z,5.98
2018-02-19T16:10:11.208Z,5.99
2018-02-19T16:12:39.547Z,6.03
2018-02-19T16:15:07.900Z,6.01
2018-02-19T16:17:36.302Z,6.16
2018-02-19T16:20:04.666Z,6.25
2018-02-19T16:22:33.173Z,6.28
2018-02-19T16:25:01.814Z,6.25
2018-02-19T16:27:30.237Z,6.19
2018-02-19T16:29:58.599Z,6.13
2018-02-19T16:32:27.129Z,6.07
2018-02-19T16:34:55.590Z,5.99
2018-02-19T16:37:23.906Z,5.82
2018-02-19T16:39:52.318Z,5.74
2018-02-19T16:42:20.690Z,5.66
2018-02-19T16:44:49.066Z,5.58
2018-02-19T16:47:17.390Z,5.76
2018-02-19T16:49:45.764Z,5.77
2018-02-19T16:52:14.098Z,5.70
2018-02-19T16:54:42.468Z,5.57
2018-02-19T16:57:10.798Z,5.45
2018-02-19T16:59:39.151Z,5.34
2018-02-19T17:02:07.487Z,5.25
2018-02-19T17:04:35.880Z,5.18
2018-02-19T17:07:04.210Z,5.08
2018-02-19T17:09:32.638Z,5.01
2018-02-19T17:12:01.014Z,4.96
2018-02-19T17:14:29.358Z,4.75
2018-02-19T17:16:57.970Z,4.76
2018-02-19T17:19:26.345Z,4.70
2018-02-19T17:21:54.670Z,4.71
2018-02-19T17:24:23.090Z,4.69
2018-02-19T17:26:51.434Z,4.65
2018-02-19T17:29:19.770Z,4.58
2018-02-19T17:31:48.180Z,4.46
2018-02-19T17:34:16.493Z,4.23
2018-02-19T17:36:45.454Z,4.36
2018-02-19T17:39:13.786Z,4.21
2018-02-19T17:41:42.142Z,4.12
2018-02-19T17:44:10.496Z,4.09
2018-02-19T17:46:38.878Z,4.07
2018-02-19T17:49:07.202Z,3.59
2018-02-19T17:51:35.654Z,3.72
2018-02-19T17:54:03.986Z,3.73
2018-02-19T17:56:32.414Z,3.76
2018-02-19T17:59:00.789Z,3.74
2018-02-19T18:01:29.146Z,3.76
2018-02-19T18:03:57.546Z,3.67
2018-02-19T18:06:25.926Z,3.32
2018-02-19T18:08:54.253Z,3.32
2018-02-19T18:11:22.651Z,3.38
2018-02-19T18:13:50.978Z,3.43
2018-02-19T18:16:20.337Z,3.43
2018-02-19T18:18:48.663Z,3.28
2018-02-19T18:21:17.109Z,3.39
2018-02-19T18:23:45.446Z,3.42
2018-02-19T18:26:13.786Z,3.35
2018-02-19T18:28:42.138Z,3.41
2018-02-19T18:31:10.493Z,3.37
2018-02-19T18:33:38.821Z,2.90
2018-02-19T18:36:07.434Z,2.88
2018-02-19T18:38:35.847Z,3.01
2018-02-19T18:41:04.198Z,3.06
2018-02-19T18:43:32.706Z,3.09
2018-02-19T18:46:01.054Z,2.67
2018-02-19T18:48:29.396Z,2.82
2018-02-19T18:50:57.742Z,2.86
2018-02-19T18:53:26.074Z,2.77
2018-02-19T18:55:54.490Z,2.69
2018-02-19T18:58:22.862Z,2.70
2018-02-19T19:00:51.222Z,2.70
2018-02-19T19:03:19.559Z,2.56
2018-02-19T19:05:47.936Z,2.49
2018-02-19T19:08:28.253Z,2.88
2018-02-19T19:10:56.632Z,3.02
2018-02-19T19:13:25.046Z,3.09
2018-02-19T19:15:53.409Z,3.08
2018-02-19T19:18:21.738Z,2.97
2018-02-19T19:20:50.090Z,2.96
2018-02-19T19:23:18.519Z,2.96
2018-02-19T19:25:46.874Z,3.02
2018-02-19T19:28:15.206Z,3.04
2018-02-19T19:30:43.550Z,3.00
2018-02-19T19:33:11.882Z,2.95
2018-02-19T19:35:40.247Z,2.95
2018-02-19T19:38:08.596Z,2.93
2018-02-19T19:40:37.394Z,2.95
2018-02-19T19:43:05.753Z,2.94
2018-02-19T19:45:34.086Z,2.90
2018-02-19T19:48:02.443Z,2.86
2018-02-19T19:50:30.770Z,2.86
2018-02-19T19:52:59.128Z,2.85
2018-02-19T19:55:27.455Z,2.70
2018-02-19T19:57:55.801Z,2.70
2018-02-19T20:00:24.155Z,2.69
2018-02-19T20:02:52.538Z,3.01
2018-02-19T20:05:20.866Z,4.17
2018-02-19T20:07:49.210Z,4.16
2018-02-19T20:10:17.537Z,3.90
2018-02-19T20:12:46.005Z,3.65
2018-02-19T20:15:14.439Z,3.48
2018-02-19T20:17:42.813Z,3.33
2018-02-19T20:20:11.742Z,3.14
2018-02-19T20:22:40.099Z,3.09
2018-02-19T20:25:08.426Z,2.99
2018-02-19T20:27:36.835Z,2.96
2018-02-19T20:30:05.216Z,2.83
2018-02-19T20:32:33.602Z,2.81
2018-02-19T20:35:01.944Z,2.80
2018-02-19T20:37:30.320Z,2.83
2018-02-19T20:39:58.656Z,2.82
2018-02-19T20:42:27.050Z,2.79
2018-02-19T20:44:55.374Z,2.74
2018-02-19T20:47:23.727Z,2.70
2018-02-19T20:49:52.847Z,2.69
2018-02-19T20:52:21.205Z,3.11
2018-02-19T20:54:49.856Z,3.18
2018-02-19T20:57:18.266Z,3.69
2018-02-19T20:59:47.554Z,3.70
2018-02-19T21:02:15.937Z,3.61
2018-02-19T21:04:44.285Z,3.50
2018-02-19T21:07:12.717Z,3.42
2018-02-19T21:09:41.361Z,3.35
2018-02-19T21:12:09.780Z,3.27
2018-02-19T21:14:38.135Z,3.17
2018-02-19T21:17:06.505Z,3.10
2018-02-19T21:19:35.172Z,3.08
2018-02-19T21:22:04.337Z,3.03
2018-02-19T21:24:32.683Z,2.99
2018-02-19T21:27:01.039Z,2.97
2018-02-19T21:29:29.417Z,2.81
2018-02-19T21:31:57.814Z,2.69
2018-02-19T21:34:26.139Z,2.76
2018-02-19T21:36:54.613Z,2.70
2018-02-19T21:39:22.929Z,2.54
2018-02-19T21:41:52.218Z,2.26
2018-02-19T21:44:20.618Z,2.12
2018-02-19T21:46:48.962Z,2.09
2018-02-19T21:49:17.322Z,2.03
2018-02-19T21:51:45.822Z,2.05
2018-02-19T21:54:14.232Z,2.11
2018-02-19T21:56:43.122Z,2.10
2018-02-19T21:59:12.319Z,2.08
2018-02-19T22:01:40.650Z,2.11
2018-02-19T22:04:09.002Z,2.12
2018-02-19T22:06:37.363Z,2.19
2018-02-19T22:09:08.897Z,2.20
2018-02-19T22:11:37.234Z,2.12
2018-02-19T22:14:05.799Z,2.29
2018-02-19T22:16:34.137Z,2.17
2018-02-19T22:19:02.502Z,2.04
2018-02-19T22:21:30.880Z,2.04
2018-02-19T22:23:59.259Z,2.21
2018-02-19T22:26:27.650Z,2.26
2018-02-19T22:28:56.008Z,2.28
2018-02-19T22:31:24.331Z,2.35
2018-02-19T22:33:52.682Z,2.37
2018-02-19T22:36:21.022Z,2.28
2018-02-19T22:38:49.366Z,2.15
2018-02-19T22:41:17.709Z,2.04
2018-02-19T22:43:46.054Z,1.99
2018-02-19T22:46:14.460Z,1.86
2018-02-19T22:48:42.806Z,2.03
2018-02-19T22:51:11.134Z,2.01
2018-02-19T22:53:39.578Z,2.08
2018-02-19T22:56:07.906Z,1.96
2018-02-19T22:58:36.308Z,2.02
2018-02-19T23:01:04.586Z,2.05
2018-02-19T23:03:32.941Z,2.06
2018-02-19T23:06:01.271Z,1.83
2018-02-19T23:08:29.613Z,1.84
2018-02-19T23:10:58.026Z,1.62
2018-02-19T23:13:26.401Z,1.58
2018-02-19T23:15:54.728Z,1.62
2018-02-19T23:18:23.073Z,1.62
2018-02-19T23:20:51.403Z,1.73
2018-02-19T23:23:19.813Z,1.73
2018-02-19T23:25:48.186Z,1.80
2018-02-19T23:28:16.567Z,1.78
2018-02-19T23:30:44.901Z,1.78
2018-02-19T23:33:13.322Z,1.97
2018-02-19T23:35:41.651Z,1.86
2018-02-19T23:38:10.074Z,1.77
2018-02-19T23:40:38.402Z,1.87
2018-02-19T23:43:06.754Z,1.94
2018-02-19T23:45:35.081Z,1.83
2018-02-19T23:48:03.402Z,1.86
2018-02-19T23:50:31.858Z,2.02
2018-02-19T23:53:00.190Z,2.12
2018-02-19T23:55:28.609Z,2.16
2018-02-19T23:57:56.990Z,1.99
